Flight Track Log - Related Links

Times and Time Zones

All times are in EDT time to prevent confusion due to time zone crossing. See the N376RC flight status page for this flight to view local times or setup timezone preferences in your user account.

Time Position Orientation Groundspeed Altitude Reporting Facility
EDT Latitude Longitude Course Direction KTS MPH feet Rate Location/Type
Tue 05:09:09 PM 43.0500 -88.2667 236° Southwest 155 178 1,500  Level KMKE
Tue 05:10:21 PM 43.0167 -88.3333 236° Southwest 170 196 3,700 1,600 Climbing KMKE
Tue 05:11:09 PM 43.0028 -88.3592 234° Southwest 168 193 4,700 1,351 Climbing Chicago Center
Tue 05:12:12 PM 42.9739 -88.4044 229° Southwest 161 185 6,200 1,536 Climbing Chicago Center
Tue 05:13:14 PM 42.9394 -88.4611 230° Southwest 164 189 7,900 871 Climbing Chicago Center
Tue 05:14:16 PM 42.9047 -88.5189 231° Southwest 187 215 8,000 48 Climbing Chicago Center
Tue 05:15:18 PM 42.8661 -88.5828 231° Southwest 209 241 8,000  Level Chicago Center
Tue 05:16:20 PM 42.8278 -88.6464 231° Southwest 215 247 8,000  Level Chicago Center
Tue 05:17:22 PM 42.7889 -88.7086 230° Southwest 216 249 8,000  Level Chicago Center
Tue 05:18:25 PM 42.7444 -88.7831 231° Southwest 216 249 8,000  Level Chicago Center
Tue 05:19:27 PM 42.7050 -88.8458 229° Southwest 217 250 8,000  Level Chicago Center
Tue 05:20:29 PM 42.6667 -88.9100 231° Southwest 218 251 8,000  Level Chicago Center
Tue 05:21:31 PM 42.6281 -88.9764 232° Southwest 224 258 8,000  Level Chicago Center
Tue 05:22:33 PM 42.5897 -89.0394 230° Southwest 217 250 8,000  Level Chicago Center
Tue 05:23:35 PM 42.5450 -89.1142 231° Southwest 219 252 8,000  Level Chicago Center
Tue 05:24:37 PM 42.5047 -89.1761 229° Southwest 220 253 8,000  Level Chicago Center
Tue 05:25:39 PM 42.4661 -89.2392 230° Southwest 220 253 8,000  Level Chicago Center
Tue 05:26:41 PM 42.4275 -89.3017 230° Southwest 218 251 8,000  Level Chicago Center
Tue 05:27:44 PM 42.3881 -89.3633 229° Southwest 219 252 8,000  Level Chicago Center
Tue 05:28:46 PM 42.3486 -89.4256 229° Southwest 218 251 8,000  Level Chicago Center
Tue 05:29:48 PM 42.3047 -89.5008 232° Southwest 219 252 8,000  Level Chicago Center
Tue 05:30:50 PM 42.2653 -89.5633 230° Southwest 220 253 8,000  Level Chicago Center
Tue 05:31:52 PM 42.2258 -89.6247 229° Southwest 217 250 8,000  Level Chicago Center
Tue 05:32:54 PM 42.1872 -89.6881 231° Southwest 217 250 8,000  Level Chicago Center
Tue 05:33:56 PM 42.1481 -89.7508 230° Southwest 219 252 8,000  Level Chicago Center
Tue 05:34:58 PM 42.1028 -89.8231 230° Southwest 216 249 8,000  Level Chicago Center
Tue 05:36:00 PM 42.0611 -89.8817 226° Southwest 218 251 8,000 -48 Level Chicago Center
Tue 05:37:02 PM 42.0236 -89.9406 229° Southwest 219 252 7,900 -145 Descending Chicago Center
Tue 05:38:04 PM 41.9647 -89.9728 202° Southwest 223 257 7,700 -581 Descending Chicago Center
Tue 05:39:06 PM 41.9061 -90.0064 203° Southwest 229 264 6,700 -1,065 Descending Chicago Center
Tue 05:40:08 PM 41.8308 -90.0475 202° Southwest 243 280 5,500 -1,065 Descending Chicago Center
Tue 05:41:10 PM 41.7706 -90.0825 203° Southwest 252 290 4,500 -834 Descending Chicago Center
Tue 05:43:15 PM 41.6303 -90.1589 202° Southwest 250 288 2,900 -513 Descending Chicago Center
Tue 05:44:17 PM 41.5678 -90.1989 206° Southwest 246 283 2,900  Level Chicago Center
Tue 05:45:19 PM 41.5175 -90.2281 203° Southwest 223 257 2,900 48 Level Chicago Center
Tue 05:46:21 PM 41.4694 -90.2542 202° Southwest 196 226 3,000 48 Climbing Chicago Center
Tue 05:47:23 PM 41.4492 -90.3075 243° Southwest 184 212 3,000 48 Level Chicago Center
Tue 05:48:25 PM 41.4386 -90.3819 259° West 175 201 3,100 48 Climbing Chicago Center
Tue 05:49:27 PM 41.4317 -90.4375 261° West 166 191 3,100 -145 Level Chicago Center
Tue 05:50:29 PM 41.4600 -90.4731 317° Northwest 151 174 2,800 -194 Descending Chicago Center
Tue 05:51:31 PM 41.4917 -90.5008 327° Northwest 141 162 2,700 -145 Descending Chicago Center
Tue 05:52:33 PM 41.5211 -90.5225 331° Northwest 131 151 2,500 -194 Descending Chicago Center
Tue 05:53:35 PM 41.5500 -90.5431 332° Northwest 128 147 2,300 -194 Descending Chicago Center

Login

Don't have an account? Register now (free) for customized features, flight alerts, and more!